createdAt,value
2017-01-27T00:00:20.260Z,-6.21
2017-01-27T00:00:50.138Z,-6.2
2017-01-27T00:01:20.313Z,-6.26
2017-01-27T00:01:50.196Z,-6.24
2017-01-27T00:02:20.365Z,-6.26
2017-01-27T00:02:50.250Z,-6.32
2017-01-27T00:03:20.421Z,-6.31
2017-01-27T00:03:50.757Z,-6.31
2017-01-27T00:04:20.476Z,-6.34
2017-01-27T00:04:50.506Z,-6.34
2017-01-27T00:05:20.532Z,-6.27
2017-01-27T00:05:50.410Z,-6.35
2017-01-27T00:06:20.591Z,-6.32
2017-01-27T00:06:50.468Z,-6.32
2017-01-27T00:07:20.644Z,-6.37
2017-01-27T00:07:50.675Z,-6.39
2017-01-27T00:08:20.700Z,-6.26
2017-01-27T00:08:50.830Z,-6.31
2017-01-27T00:09:20.750Z,-6.32
2017-01-27T00:09:50.780Z,-6.32
2017-01-27T00:10:20.661Z,-6.34
2017-01-27T00:10:50.835Z,-6.34
2017-01-27T00:11:20.723Z,-6.38
2017-01-27T00:11:50.922Z,-6.38
2017-01-27T00:12:20.920Z,-6.44
2017-01-27T00:12:50.948Z,-6.44
2017-01-27T00:13:20.972Z,-6.47
2017-01-27T00:13:50.855Z,-6.41
2017-01-27T00:14:20.889Z,-6.35
2017-01-27T00:14:51.056Z,-6.42
2017-01-27T00:15:21.086Z,-6.39
2017-01-27T00:15:51.124Z,-6.32
2017-01-27T00:16:21.136Z,-6.31
2017-01-27T00:16:51.178Z,-6.42
2017-01-27T00:17:21.187Z,-6.48
2017-01-27T00:17:51.230Z,-6.44
2017-01-27T00:18:21.254Z,-6.41
2017-01-27T00:18:51.125Z,-6.44
2017-01-27T00:19:21.157Z,-6.38
2017-01-27T00:19:51.204Z,-6.39
2017-01-27T00:20:21.361Z,-6.47
2017-01-27T00:20:51.238Z,-6.5
2017-01-27T00:21:21.417Z,-6.41
2017-01-27T00:21:51.442Z,-6.56
2017-01-27T00:22:21.472Z,-6.53
2017-01-27T00:22:51.502Z,-6.56
2017-01-27T00:23:21.519Z,-6.55
2017-01-27T00:23:51.549Z,-6.55
2017-01-27T00:24:21.883Z,-6.52
2017-01-27T00:24:51.609Z,-6.53
2017-01-27T00:25:21.635Z,-6.6
2017-01-27T00:25:51.541Z,-6.56
2017-01-27T00:26:21.684Z,-6.52
2017-01-27T00:26:51.573Z,-6.61
2017-01-27T00:27:21.752Z,-6.59
2017-01-27T00:27:51.764Z,-6.6
2017-01-27T00:28:21.803Z,-6.6
2017-01-27T00:28:51.676Z,-6.61
2017-01-27T00:29:22.107Z,-6.64
2017-01-27T00:29:51.734Z,-6.63
2017-01-27T00:30:21.766Z,-6.66
2017-01-27T00:30:51.932Z,-6.67
2017-01-27T00:31:21.959Z,-6.59
2017-01-27T00:31:51.989Z,-6.63
2017-01-27T00:32:22.016Z,-6.69
2017-01-27T00:32:52.043Z,-6.69
2017-01-27T00:33:22.076Z,-6.63
2017-01-27T00:33:51.948Z,-6.66
2017-01-27T00:34:22.128Z,-6.64
2017-01-27T00:34:52.156Z,-6.63
2017-01-27T00:35:22.175Z,-6.63
2017-01-27T00:35:52.211Z,-6.64
2017-01-27T00:36:22.237Z,-6.63
2017-01-27T00:36:52.262Z,-6.64
2017-01-27T00:37:22.287Z,-6.69
2017-01-27T00:37:52.324Z,-6.66
2017-01-27T00:38:22.340Z,-6.64
2017-01-27T00:38:52.377Z,-6.63
2017-01-27T00:39:22.250Z,-6.67
2017-01-27T00:39:52.727Z,-6.75
2017-01-27T00:40:22.452Z,-6.72
2017-01-27T00:40:52.511Z,-6.61
2017-01-27T00:41:22.506Z,-6.64
2017-01-27T00:41:52.539Z,-6.79
2017-01-27T00:42:22.561Z,-6.75
2017-01-27T00:42:52.597Z,-6.69
2017-01-27T00:43:22.622Z,-6.74
2017-01-27T00:43:52.648Z,-6.71
2017-01-27T00:44:22.670Z,-6.75
2017-01-27T00:44:52.999Z,-6.67
2017-01-27T00:45:22.722Z,-6.67
2017-01-27T00:45:52.750Z,-6.72
2017-01-27T00:46:22.781Z,-6.74
2017-01-27T00:46:52.810Z,-6.75
2017-01-27T00:47:22.840Z,-6.71
2017-01-27T00:47:52.874Z,-6.72
2017-01-27T00:48:22.905Z,-6.77
2017-01-27T00:48:52.923Z,-6.77
2017-01-27T00:49:22.941Z,-6.82
2017-01-27T00:49:52.976Z,-6.71
2017-01-27T00:50:23.035Z,-6.79
2017-01-27T00:50:53.055Z,-6.82
2017-01-27T00:51:23.066Z,-6.84
2017-01-27T00:51:53.085Z,-6.78
2017-01-27T00:52:23.107Z,-6.75
2017-01-27T00:52:53.135Z,-6.74
2017-01-27T00:53:23.031Z,-6.72
2017-01-27T00:53:53.191Z,-6.78
2017-01-27T00:54:23.073Z,-6.81
2017-01-27T00:54:53.243Z,-6.82
2017-01-27T00:55:23.131Z,-6.85
2017-01-27T00:55:53.300Z,-6.92
2017-01-27T00:56:23.182Z,-6.95
2017-01-27T00:56:53.362Z,-6.96
2017-01-27T00:57:23.394Z,-6.95
2017-01-27T00:57:53.269Z,-6.9
2017-01-27T00:58:23.292Z,-6.93
2017-01-27T00:58:53.498Z,-6.93
2017-01-27T00:59:23.495Z,-6.95
2017-01-27T00:59:53.524Z,-6.85
2017-01-27T01:00:23.798Z,-6.89
2017-01-27T01:00:53.426Z,-6.95
2017-01-27T01:01:23.313Z,-6.89
2017-01-27T01:01:53.489Z,-6.95
2017-01-27T01:02:23.513Z,-7
2017-01-27T01:02:53.535Z,-6.99
2017-01-27T01:03:23.730Z,-7.05
2017-01-27T01:03:53.744Z,-6.92
2017-01-27T01:04:23.772Z,-7.05
2017-01-27T01:04:53.799Z,-6.98
2017-01-27T01:05:24.124Z,-7.16
2017-01-27T01:05:53.848Z,-6.98
2017-01-27T01:06:23.883Z,-6.98
2017-01-27T01:06:53.710Z,-7
2017-01-27T01:07:23.783Z,-7.07
2017-01-27T01:07:53.978Z,-7.1
2017-01-27T01:08:24.017Z,-7.08
2017-01-27T01:08:54.014Z,-6.99
2017-01-27T01:09:23.896Z,-6.96
2017-01-27T01:09:54.071Z,-7
2017-01-27T01:10:24.103Z,-6.96
2017-01-27T01:10:54.123Z,-6.98
2017-01-27T01:11:24.154Z,-7.05
2017-01-27T01:11:54.191Z,-7.07
2017-01-27T01:12:24.059Z,-7.07
2017-01-27T01:12:54.087Z,-7.03
2017-01-27T01:13:23.984Z,-7.1
2017-01-27T01:13:54.288Z,-7.14
2017-01-27T01:14:24.168Z,-7.13
2017-01-27T01:14:54.344Z,-7.08
2017-01-27T01:15:24.224Z,-7.03
2017-01-27T01:15:54.650Z,-7.07
2017-01-27T01:16:24.420Z,-7.1
2017-01-27T01:16:54.480Z,-7.14
2017-01-27T01:17:24.352Z,-7.14
2017-01-27T01:17:54.509Z,-7.11
2017-01-27T01:18:24.387Z,-7.17
2017-01-27T01:18:54.562Z,-7.13
2017-01-27T01:19:24.590Z,-7.18
2017-01-27T01:19:54.618Z,-7.17
2017-01-27T01:20:24.642Z,-7.21
2017-01-27T01:20:54.832Z,-7.31
2017-01-27T01:21:24.700Z,-7.27
2017-01-27T01:21:54.584Z,-7.24
2017-01-27T01:22:24.749Z,-7.28
2017-01-27T01:22:54.631Z,-7.28
2017-01-27T01:23:24.807Z,-7.31
2017-01-27T01:23:54.836Z,-7.34
2017-01-27T01:24:24.861Z,-7.28
2017-01-27T01:24:54.744Z,-7.28
2017-01-27T01:25:24.916Z,-7.23
2017-01-27T01:25:54.943Z,-7.24
2017-01-27T01:26:24.822Z,-7.31
2017-01-27T01:26:54.999Z,-7.28
2017-01-27T01:27:25.025Z,-7.27
2017-01-27T01:27:54.904Z,-7.28
2017-01-27T01:28:24.931Z,-7.32
2017-01-27T01:28:55.104Z,-7.24
2017-01-27T01:29:24.992Z,-7.31
2017-01-27T01:29:55.012Z,-7.31
2017-01-27T01:30:25.188Z,-7.28
2017-01-27T01:30:55.075Z,-7.27
2017-01-27T01:31:25.119Z,-7.32
2017-01-27T01:31:55.128Z,-7.23
2017-01-27T01:32:25.300Z,-7.28
2017-01-27T01:32:55.345Z,-7.29
2017-01-27T01:33:25.204Z,-7.21
2017-01-27T01:33:55.381Z,-7.23
2017-01-27T01:34:25.409Z,-7.24
2017-01-27T01:34:55.286Z,-7.23
2017-01-27T01:35:25.467Z,-7.18
2017-01-27T01:35:55.344Z,-7.24
2017-01-27T01:36:25.865Z,-7.14
2017-01-27T01:36:55.402Z,-7.16
2017-01-27T01:37:25.571Z,-7.13
2017-01-27T01:37:55.590Z,-7.14
2017-01-27T01:38:25.480Z,-7.18
2017-01-27T01:38:55.668Z,-7.17
2017-01-27T01:39:25.685Z,-7.07
2017-01-27T01:39:55.704Z,-7.16
2017-01-27T01:40:25.728Z,-7.14
2017-01-27T01:40:55.756Z,-7.07
2017-01-27T01:41:26.043Z,-6.98
2017-01-27T01:41:55.666Z,-7
2017-01-27T01:42:25.848Z,-7.1
2017-01-27T01:42:55.723Z,-7.03
2017-01-27T01:43:25.897Z,-7.05
2017-01-27T01:43:55.918Z,-7.08
2017-01-27T01:44:25.953Z,-7.05
2017-01-27T01:44:55.977Z,-7.05
2017-01-27T01:45:26.008Z,-7.07
2017-01-27T01:45:56.034Z,-7
2017-01-27T01:46:25.913Z,-7.02
2017-01-27T01:46:56.086Z,-7
2017-01-27T01:47:26.111Z,-7.08
2017-01-27T01:47:56.142Z,-7.07
2017-01-27T01:48:26.167Z,-7.03
2017-01-27T01:48:56.196Z,-7.1
2017-01-27T01:49:26.225Z,-7.07
2017-01-27T01:49:56.258Z,-7.02
2017-01-27T01:50:26.128Z,-7.03
2017-01-27T01:50:56.558Z,-7.03
2017-01-27T01:51:26.325Z,-6.93
2017-01-27T01:51:56.364Z,-7.08
2017-01-27T01:52:26.250Z,-7.03
2017-01-27T01:52:56.417Z,-7
2017-01-27T01:53:26.298Z,-7.1
2017-01-27T01:53:56.473Z,-7.07
2017-01-27T01:54:26.496Z,-7.03
2017-01-27T01:54:56.526Z,-7.13
2017-01-27T01:55:26.403Z,-7.14
2017-01-27T01:55:56.429Z,-7.1
2017-01-27T01:56:26.459Z,-7.16
2017-01-27T01:56:56.784Z,-7.13
2017-01-27T01:57:26.661Z,-7.23
2017-01-27T01:57:56.555Z,-7.21
2017-01-27T01:58:26.721Z,-7.29
2017-01-27T01:58:56.605Z,-7.24
2017-01-27T01:59:26.775Z,-7.27
2017-01-27T01:59:56.648Z,-7.32
2017-01-27T02:00:26.680Z,-7.28
2017-01-27T02:00:56.856Z,-7.37
2017-01-27T02:01:26.881Z,-7.34
2017-01-27T02:01:57.163Z,-7.31
2017-01-27T02:02:26.940Z,-7.34
2017-01-27T02:02:56.962Z,-7.37
2017-01-27T02:03:26.841Z,-7.41
2017-01-27T02:03:57.022Z,-7.35
2017-01-27T02:04:27.049Z,-7.39
2017-01-27T02:04:57.067Z,-7.46
2017-01-27T02:05:27.096Z,-7.42
2017-01-27T02:05:57.121Z,-7.42
2017-01-27T02:06:27.150Z,-7.49
2017-01-27T02:06:57.045Z,-7.45
2017-01-27T02:07:27.206Z,-7.46
2017-01-27T02:07:57.246Z,-7.45
2017-01-27T02:08:27.261Z,-7.35
2017-01-27T02:08:57.148Z,-7.38
2017-01-27T02:09:27.318Z,-7.35
2017-01-27T02:09:57.349Z,-7.29
2017-01-27T02:10:27.375Z,-7.47
2017-01-27T02:10:57.402Z,-7.39
2017-01-27T02:11:27.425Z,-7.45
2017-01-27T02:11:57.450Z,-7.42
2017-01-27T02:12:27.727Z,-7.42
2017-01-27T02:12:57.517Z,-7.39
2017-01-27T02:13:27.535Z,-7.32
2017-01-27T02:13:57.557Z,-7.42
2017-01-27T02:14:27.583Z,-7.42
2017-01-27T02:14:57.612Z,-7.39
2017-01-27T02:15:27.642Z,-7.45
2017-01-27T02:15:57.665Z,-7.42
2017-01-27T02:16:27.703Z,-7.37
2017-01-27T02:16:57.719Z,-7.46
2017-01-27T02:17:28.050Z,-7.41
2017-01-27T02:17:57.776Z,-7.5
2017-01-27T02:18:27.806Z,-7.55
2017-01-27T02:18:57.830Z,-7.47
2017-01-27T02:19:27.853Z,-7.45
2017-01-27T02:19:57.886Z,-7.49
2017-01-27T02:20:27.911Z,-7.45
2017-01-27T02:20:57.793Z,-7.41
2017-01-27T02:21:27.976Z,-7.52
2017-01-27T02:21:58.028Z,-7.49
2017-01-27T02:22:28.022Z,-7.53
2017-01-27T02:22:58.055Z,-7.57
2017-01-27T02:23:28.076Z,-7.57
2017-01-27T02:23:58.106Z,-7.53
2017-01-27T02:24:28.125Z,-7.62
2017-01-27T02:24:58.158Z,-7.6
2017-01-27T02:25:28.185Z,-7.6
2017-01-27T02:25:58.210Z,-7.67
2017-01-27T02:26:28.233Z,-7.67
2017-01-27T02:26:58.260Z,-7.64
2017-01-27T02:27:28.299Z,-7.6
2017-01-27T02:27:58.619Z,-7.67
2017-01-27T02:28:28.344Z,-7.64
2017-01-27T02:28:58.375Z,-7.76
2017-01-27T02:29:28.401Z,-7.77
2017-01-27T02:29:58.423Z,-7.78
2017-01-27T02:30:28.454Z,-7.78
2017-01-27T02:30:58.481Z,-7.74
2017-01-27T02:31:28.509Z,-7.76
2017-01-27T02:31:58.535Z,-7.87
2017-01-27T02:32:28.568Z,-7.85
2017-01-27T02:32:58.893Z,-7.8
2017-01-27T02:33:28.640Z,-7.96
2017-01-27T02:33:58.645Z,-7.94
2017-01-27T02:34:28.666Z,-7.92
2017-01-27T02:34:58.551Z,-7.91
2017-01-27T02:35:28.744Z,-7.91
2017-01-27T02:35:58.750Z,-7.96
2017-01-27T02:36:28.774Z,-7.96
2017-01-27T02:36:58.805Z,-7.87
2017-01-27T02:37:28.836Z,-7.95
2017-01-27T02:37:58.860Z,-7.94
2017-01-27T02:38:28.737Z,-7.91
2017-01-27T02:38:58.914Z,-7.91
2017-01-27T02:39:28.938Z,-7.92
2017-01-27T02:39:58.963Z,-7.95
2017-01-27T02:40:28.993Z,-7.94
2017-01-27T02:40:59.020Z,-7.92
2017-01-27T02:41:29.052Z,-7.95
2017-01-27T02:41:59.077Z,-7.88
2017-01-27T02:42:29.103Z,-7.92
2017-01-27T02:42:59.129Z,-7.87
2017-01-27T02:43:29.164Z,-7.89
2017-01-27T02:43:59.183Z,-7.91
2017-01-27T02:44:29.213Z,-7.84
2017-01-27T02:44:59.239Z,-7.87
2017-01-27T02:45:29.270Z,-7.95
2017-01-27T02:45:59.296Z,-7.94
2017-01-27T02:46:29.175Z,-7.94
2017-01-27T02:46:59.346Z,-7.94
2017-01-27T02:47:29.373Z,-7.95
2017-01-27T02:47:59.400Z,-7.91
2017-01-27T02:48:29.722Z,-7.96
2017-01-27T02:48:59.453Z,-7.91
2017-01-27T02:49:29.483Z,-7.92
2017-01-27T02:49:59.507Z,-7.88
2017-01-27T02:50:29.534Z,-7.98
2017-01-27T02:50:59.566Z,-7.88
2017-01-27T02:51:29.603Z,-7.95
2017-01-27T02:51:59.624Z,-7.89
2017-01-27T02:52:29.500Z,-7.88
2017-01-27T02:52:59.674Z,-7.95
2017-01-27T02:53:30.013Z,-7.89
2017-01-27T02:53:59.724Z,-7.89
2017-01-27T02:54:29.756Z,-7.94
2017-01-27T02:54:59.780Z,-7.85
2017-01-27T02:55:29.810Z,-7.88
2017-01-27T02:55:59.841Z,-7.92
2017-01-27T02:56:29.860Z,-7.84
2017-01-27T02:56:59.890Z,-7.85
2017-01-27T02:57:29.923Z,-7.89
2017-01-27T02:57:59.946Z,-7.87
2017-01-27T02:58:29.966Z,-7.85
2017-01-27T02:58:59.998Z,-7.88
2017-01-27T02:59:30.021Z,-7.85
2017-01-27T03:00:00.064Z,-7.87
2017-01-27T03:00:30.078Z,-7.88
2017-01-27T03:01:00.105Z,-7.87
2017-01-27T03:01:30.136Z,-7.74
2017-01-27T03:02:00.017Z,-7.77
2017-01-27T03:02:30.187Z,-7.82
2017-01-27T03:03:00.064Z,-7.78
2017-01-27T03:03:30.236Z,-7.76
2017-01-27T03:04:00.265Z,-7.87
2017-01-27T03:04:30.294Z,-7.76
2017-01-27T03:05:00.320Z,-7.8
2017-01-27T03:05:30.347Z,-7.8
2017-01-27T03:06:00.380Z,-7.77
2017-01-27T03:06:30.257Z,-7.77
2017-01-27T03:07:00.432Z,-7.82
2017-01-27T03:07:30.316Z,-7.73
2017-01-27T03:08:00.485Z,-7.67
2017-01-27T03:08:30.517Z,-7.73
2017-01-27T03:09:00.891Z,-7.73
2017-01-27T03:09:30.564Z,-7.71
2017-01-27T03:10:00.589Z,-7.84
2017-01-27T03:10:30.623Z,-7.85
2017-01-27T03:11:00.650Z,-7.77
2017-01-27T03:11:30.703Z,-7.74
2017-01-27T03:12:00.700Z,-7.78
2017-01-27T03:12:30.728Z,-7.73
2017-01-27T03:13:00.751Z,-7.82
2017-01-27T03:13:30.782Z,-7.77
2017-01-27T03:14:00.964Z,-7.84
2017-01-27T03:14:30.840Z,-7.77
2017-01-27T03:15:00.866Z,-7.77
2017-01-27T03:15:30.894Z,-7.8
2017-01-27T03:16:00.921Z,-7.73
2017-01-27T03:16:30.945Z,-7.74
2017-01-27T03:17:00.975Z,-7.68
2017-01-27T03:17:30.996Z,-7.68
2017-01-27T03:18:00.884Z,-7.56
2017-01-27T03:18:31.055Z,-7.66
2017-01-27T03:19:01.079Z,-7.66
2017-01-27T03:19:31.110Z,-7.67
2017-01-27T03:20:00.987Z,-7.68
2017-01-27T03:20:31.021Z,-7.6
2017-01-27T03:21:01.189Z,-7.6
2017-01-27T03:21:31.214Z,-7.53
2017-01-27T03:22:01.240Z,-7.49
2017-01-27T03:22:31.274Z,-7.49
2017-01-27T03:23:01.298Z,-7.41
2017-01-27T03:23:31.323Z,-7.42
2017-01-27T03:24:01.360Z,-7.41
2017-01-27T03:24:31.680Z,-7.39
2017-01-27T03:25:01.408Z,-7.32
2017-01-27T03:25:31.441Z,-7.31
2017-01-27T03:26:01.465Z,-7.38
2017-01-27T03:26:31.499Z,-7.24
2017-01-27T03:27:01.518Z,-7.31
2017-01-27T03:27:31.552Z,-7.27
2017-01-27T03:28:01.577Z,-7.28
2017-01-27T03:28:31.595Z,-7.29
2017-01-27T03:29:01.624Z,-7.24
2017-01-27T03:29:31.950Z,-7.34
2017-01-27T03:30:01.779Z,-7.21
2017-01-27T03:30:31.705Z,-7.37
2017-01-27T03:31:01.728Z,-7.37
2017-01-27T03:31:31.754Z,-7.42
2017-01-27T03:32:01.794Z,-7.35
2017-01-27T03:32:31.810Z,-7.42
2017-01-27T03:33:01.997Z,-7.41
2017-01-27T03:33:31.866Z,-7.42
2017-01-27T03:34:01.894Z,-7.5
2017-01-27T03:34:31.923Z,-7.49
2017-01-27T03:35:02.294Z,-7.45
2017-01-27T03:35:31.972Z,-7.52
2017-01-27T03:36:02.007Z,-7.5
2017-01-27T03:36:32.032Z,-7.5
2017-01-27T03:37:02.411Z,-7.6
2017-01-27T03:37:32.085Z,-7.59
2017-01-27T03:38:02.119Z,-7.59
2017-01-27T03:38:32.145Z,-7.59
2017-01-27T03:39:02.170Z,-7.55
2017-01-27T03:39:32.198Z,-7.57
2017-01-27T03:40:02.524Z,-7.64
2017-01-27T03:40:32.243Z,-7.59
2017-01-27T03:41:02.283Z,-7.55
2017-01-27T03:41:32.301Z,-7.59
2017-01-27T03:42:02.663Z,-7.66
2017-01-27T03:42:32.358Z,-7.53
2017-01-27T03:43:02.675Z,-7.59
2017-01-27T03:43:32.414Z,-7.56
2017-01-27T03:44:02.488Z,-7.6
2017-01-27T03:44:32.461Z,-7.53
2017-01-27T03:45:02.742Z,-7.55
2017-01-27T03:45:32.377Z,-7.6
2017-01-27T03:46:02.602Z,-7.57
2017-01-27T03:46:32.575Z,-7.57
2017-01-27T03:47:02.605Z,-7.66
2017-01-27T03:47:32.629Z,-7.66
2017-01-27T03:48:02.658Z,-7.6
2017-01-27T03:48:32.680Z,-7.64
2017-01-27T03:49:02.925Z,-7.62
2017-01-27T03:49:32.741Z,-7.67
2017-01-27T03:50:03.072Z,-7.73
2017-01-27T03:50:32.786Z,-7.67
2017-01-27T03:51:02.817Z,-7.57
2017-01-27T03:51:32.853Z,-7.67
2017-01-27T03:52:03.024Z,-7.67
2017-01-27T03:52:32.756Z,-7.68
2017-01-27T03:53:02.928Z,-7.67
2017-01-27T03:53:32.961Z,-7.68
2017-01-27T03:54:03.039Z,-7.64
2017-01-27T03:54:33.018Z,-7.7
2017-01-27T03:55:03.437Z,-7.67
2017-01-27T03:55:33.067Z,-7.7
2017-01-27T03:56:03.102Z,-7.67
2017-01-27T03:56:33.124Z,-7.64
2017-01-27T03:57:03.142Z,-7.67
2017-01-27T03:57:33.173Z,-7.66
2017-01-27T03:58:03.303Z,-7.66
2017-01-27T03:58:33.225Z,-7.67
2017-01-27T03:59:03.455Z,-7.6
2017-01-27T03:59:33.280Z,-7.7
2017-01-27T04:00:03.312Z,-7.7
2017-01-27T04:00:33.332Z,-7.66
2017-01-27T04:01:03.455Z,-7.7
2017-01-27T04:01:33.388Z,-7.6
2017-01-27T04:02:03.415Z,-7.62
2017-01-27T04:02:33.441Z,-7.67
2017-01-27T04:03:03.670Z,-7.64
2017-01-27T04:03:33.500Z,-7.6
2017-01-27T04:04:03.530Z,-7.64
2017-01-27T04:04:33.577Z,-7.67
2017-01-27T04:05:03.585Z,-7.67
2017-01-27T04:05:33.603Z,-7.76
2017-01-27T04:06:03.639Z,-7.84
2017-01-27T04:06:33.663Z,-7.82
2017-01-27T04:07:03.691Z,-7.71
2017-01-27T04:07:33.709Z,-7.73
2017-01-27T04:08:03.992Z,-7.73
2017-01-27T04:08:33.771Z,-7.87
2017-01-27T04:09:03.794Z,-7.84
2017-01-27T04:09:33.824Z,-7.82
2017-01-27T04:10:03.714Z,-7.85
2017-01-27T04:10:34.128Z,-7.92
2017-01-27T04:11:03.907Z,-7.96
2017-01-27T04:11:33.934Z,-7.96
2017-01-27T04:12:03.958Z,-8.03
2017-01-27T04:12:33.988Z,-8.04
2017-01-27T04:13:04.028Z,-8.06
2017-01-27T04:13:34.050Z,-8.13
2017-01-27T04:14:04.065Z,-8.16
2017-01-27T04:14:34.105Z,-8.18
2017-01-27T04:15:04.126Z,-8.18
2017-01-27T04:15:34.399Z,-8.25
2017-01-27T04:16:04.385Z,-8.32
2017-01-27T04:16:34.202Z,-8.34
2017-01-27T04:17:04.237Z,-8.31
2017-01-27T04:17:34.283Z,-8.31
2017-01-27T04:18:04.285Z,-8.32
2017-01-27T04:18:34.339Z,-8.31
2017-01-27T04:19:04.343Z,-8.35
2017-01-27T04:19:34.366Z,-8.32
2017-01-27T04:20:04.238Z,-8.37
2017-01-27T04:20:34.668Z,-8.42
2017-01-27T04:21:04.442Z,-8.45
2017-01-27T04:21:34.473Z,-8.31
2017-01-27T04:22:04.501Z,-8.31
2017-01-27T04:22:34.525Z,-8.29
2017-01-27T04:23:04.557Z,-8.31
2017-01-27T04:23:34.582Z,-8.31
2017-01-27T04:24:04.607Z,-8.31
2017-01-27T04:24:34.635Z,-8.31
2017-01-27T04:25:04.657Z,-8.37
2017-01-27T04:25:34.690Z,-8.34
2017-01-27T04:26:04.715Z,-8.31
2017-01-27T04:26:34.598Z,-8.31
2017-01-27T04:27:04.767Z,-8.31
2017-01-27T04:27:34.799Z,-8.31
2017-01-27T04:28:04.823Z,-8.27
2017-01-27T04:28:34.878Z,-8.28
2017-01-27T04:29:04.872Z,-8.31
2017-01-27T04:29:34.900Z,-8.25
2017-01-27T04:30:04.935Z,-8.22
2017-01-27T04:30:34.951Z,-8.18
2017-01-27T04:31:04.844Z,-8.27
2017-01-27T04:31:35.008Z,-8.17
2017-01-27T04:32:05.038Z,-8.16
2017-01-27T04:32:35.071Z,-8.16
2017-01-27T04:33:05.089Z,-8.14
2017-01-27T04:33:35.110Z,-8.13
2017-01-27T04:34:04.996Z,-8.16
2017-01-27T04:34:35.169Z,-8.11
2017-01-27T04:35:05.214Z,-8.16
2017-01-27T04:35:35.075Z,-8.16
2017-01-27T04:36:05.499Z,-8.18
2017-01-27T04:36:35.286Z,-8.14
2017-01-27T04:37:05.308Z,-8.1
2017-01-27T04:37:35.329Z,-8.14
2017-01-27T04:38:05.359Z,-8.18
2017-01-27T04:38:35.387Z,-8.17
2017-01-27T04:39:05.411Z,-8.21
2017-01-27T04:39:35.437Z,-8.17
2017-01-27T04:40:05.488Z,-8.27
2017-01-27T04:40:35.486Z,-8.24
2017-01-27T04:41:05.767Z,-8.18
2017-01-27T04:41:35.553Z,-8.28
2017-01-27T04:42:05.578Z,-8.28
2017-01-27T04:42:35.601Z,-8.32
2017-01-27T04:43:05.634Z,-8.31
2017-01-27T04:43:35.657Z,-8.31
2017-01-27T04:44:05.541Z,-8.31
2017-01-27T04:44:35.712Z,-8.35
2017-01-27T04:45:05.739Z,-8.32
2017-01-27T04:45:35.762Z,-8.4
2017-01-27T04:46:05.759Z,-8.45
2017-01-27T04:46:35.821Z,-8.43
2017-01-27T04:47:05.838Z,-8.37
2017-01-27T04:47:35.875Z,-8.43
2017-01-27T04:48:05.900Z,-8.46
2017-01-27T04:48:35.937Z,-8.43
2017-01-27T04:49:05.957Z,-8.39
2017-01-27T04:49:35.989Z,-8.45
2017-01-27T04:50:06.004Z,-8.47
2017-01-27T04:50:36.035Z,-8.49
2017-01-27T04:51:06.054Z,-8.46
2017-01-27T04:51:36.093Z,-8.53
2017-01-27T04:52:06.116Z,-8.56
2017-01-27T04:52:36.140Z,-8.56
2017-01-27T04:53:06.169Z,-8.63
2017-01-27T04:53:36.195Z,-8.64
2017-01-27T04:54:06.225Z,-8.6
2017-01-27T04:54:36.250Z,-8.68
2017-01-27T04:55:06.273Z,-8.61
2017-01-27T04:55:36.300Z,-8.68
2017-01-27T04:56:06.326Z,-8.71
2017-01-27T04:56:36.734Z,-8.71
2017-01-27T04:57:06.387Z,-8.73
2017-01-27T04:57:36.411Z,-8.71
2017-01-27T04:58:06.431Z,-8.78
2017-01-27T04:58:36.469Z,-8.74
2017-01-27T04:59:06.352Z,-8.81
2017-01-27T04:59:36.512Z,-8.71
2017-01-27T05:00:06.544Z,-8.74
2017-01-27T05:00:36.570Z,-8.71
2017-01-27T05:01:06.596Z,-8.84
2017-01-27T05:01:36.876Z,-8.74
2017-01-27T05:02:06.657Z,-8.84
2017-01-27T05:02:36.674Z,-8.81
2017-01-27T05:03:06.708Z,-8.74
2017-01-27T05:03:36.734Z,-8.79
2017-01-27T05:04:06.760Z,-8.81
2017-01-27T05:04:36.793Z,-8.79
2017-01-27T05:05:06.811Z,-8.74
2017-01-27T05:05:36.838Z,-8.76
2017-01-27T05:06:06.861Z,-8.76
2017-01-27T05:06:36.887Z,-8.78
2017-01-27T05:07:06.923Z,-8.73
2017-01-27T05:07:36.943Z,-8.7
2017-01-27T05:08:06.986Z,-8.68
2017-01-27T05:08:37.010Z,-8.73
2017-01-27T05:09:07.035Z,-8.61
2017-01-27T05:09:37.051Z,-8.64
2017-01-27T05:10:07.086Z,-8.67
2017-01-27T05:10:37.108Z,-8.66
2017-01-27T05:11:07.137Z,-8.47
2017-01-27T05:11:37.163Z,-8.37
2017-01-27T05:12:07.187Z,-8.42
2017-01-27T05:12:37.209Z,-8.43
2017-01-27T05:13:07.247Z,-8.42
2017-01-27T05:13:37.278Z,-8.43
2017-01-27T05:14:07.296Z,-8.39
2017-01-27T05:14:37.324Z,-8.28
2017-01-27T05:15:07.350Z,-8.25
2017-01-27T05:15:37.402Z,-8.37
2017-01-27T05:16:07.408Z,-8.28
2017-01-27T05:16:37.283Z,-8.29
2017-01-27T05:17:07.707Z,-8.22
2017-01-27T05:17:37.345Z,-8.21
2017-01-27T05:18:07.518Z,-8.21
2017-01-27T05:18:37.536Z,-8.16
2017-01-27T05:19:07.561Z,-8.22
2017-01-27T05:19:37.589Z,-8.17
2017-01-27T05:20:07.619Z,-8.16
2017-01-27T05:20:37.664Z,-8.17
2017-01-27T05:21:07.527Z,-8.16
2017-01-27T05:21:37.705Z,-8.21
2017-01-27T05:22:08.033Z,-8.17
2017-01-27T05:22:37.774Z,-8.14
2017-01-27T05:23:07.779Z,-8.21
2017-01-27T05:23:37.811Z,-8.27
2017-01-27T05:24:07.833Z,-8.18
2017-01-27T05:24:37.863Z,-8.22
2017-01-27T05:25:07.892Z,-8.21
2017-01-27T05:25:37.918Z,-8.16
2017-01-27T05:26:07.941Z,-8.21
2017-01-27T05:26:37.973Z,-8.14
2017-01-27T05:27:07.999Z,-8.18
2017-01-27T05:27:38.026Z,-8.21
2017-01-27T05:28:08.049Z,-8.18
2017-01-27T05:28:38.079Z,-8.22
2017-01-27T05:29:08.107Z,-8.1
2017-01-27T05:29:38.137Z,-8.11
2017-01-27T05:30:08.165Z,-8.17
2017-01-27T05:30:38.189Z,-8.17
2017-01-27T05:31:08.219Z,-8.17
2017-01-27T05:31:38.241Z,-8.16
2017-01-27T05:32:08.303Z,-8.14
2017-01-27T05:32:38.548Z,-8.24
2017-01-27T05:33:08.318Z,-8.21
2017-01-27T05:33:38.354Z,-8.28
2017-01-27T05:34:08.374Z,-8.18
2017-01-27T05:34:38.401Z,-8.17
2017-01-27T05:35:08.423Z,-8.21
2017-01-27T05:35:38.452Z,-8.13
2017-01-27T05:36:08.487Z,-8.14
2017-01-27T05:36:38.514Z,-8.13
2017-01-27T05:37:08.544Z,-8.1
2017-01-27T05:37:38.817Z,-8.13
2017-01-27T05:38:08.587Z,-8.08
2017-01-27T05:38:38.623Z,-8.08
2017-01-27T05:39:08.648Z,-8.06
2017-01-27T05:39:38.701Z,-8.13
2017-01-27T05:40:08.694Z,-8.06
2017-01-27T05:40:38.720Z,-8.08
2017-01-27T05:41:08.753Z,-8.07
2017-01-27T05:41:38.787Z,-8.07
2017-01-27T05:42:08.808Z,-8.03
2017-01-27T05:42:39.131Z,-8.04
2017-01-27T05:43:08.862Z,-8.08
2017-01-27T05:43:38.885Z,-8.06
2017-01-27T05:44:08.916Z,-8.06
2017-01-27T05:44:38.945Z,-7.96
2017-01-27T05:45:08.967Z,-8.13
2017-01-27T05:45:38.994Z,-8.03
2017-01-27T05:46:09.027Z,-7.95
2017-01-27T05:46:39.055Z,-7.91
2017-01-27T05:47:09.076Z,-7.95
2017-01-27T05:47:39.107Z,-7.95
2017-01-27T05:48:09.127Z,-7.95
2017-01-27T05:48:39.153Z,-7.92
2017-01-27T05:49:09.180Z,-7.95
2017-01-27T05:49:39.226Z,-7.94
2017-01-27T05:50:09.250Z,-7.96
2017-01-27T05:50:39.269Z,-7.96
2017-01-27T05:51:09.290Z,-7.85
2017-01-27T05:51:39.324Z,-7.87
2017-01-27T05:52:09.349Z,-7.91
2017-01-27T05:52:39.388Z,-7.94
2017-01-27T05:53:09.699Z,-7.96
2017-01-27T05:53:39.427Z,-7.87
2017-01-27T05:54:09.457Z,-7.94
2017-01-27T05:54:39.479Z,-7.85
2017-01-27T05:55:09.506Z,-7.85
2017-01-27T05:55:39.534Z,-7.87
2017-01-27T05:56:09.566Z,-7.84
2017-01-27T05:56:39.616Z,-7.85
2017-01-27T05:57:09.472Z,-7.92
2017-01-27T05:57:39.642Z,-7.89
2017-01-27T05:58:09.928Z,-7.94
2017-01-27T05:58:39.708Z,-7.87
2017-01-27T05:59:09.724Z,-7.98
2017-01-27T05:59:39.756Z,-7.91
2017-01-27T06:00:09.777Z,-7.98
2017-01-27T06:00:39.803Z,-7.87
2017-01-27T06:01:09.680Z,-7.96
2017-01-27T06:01:39.866Z,-7.96
2017-01-27T06:02:09.889Z,-7.96
2017-01-27T06:02:39.915Z,-7.95
2017-01-27T06:03:09.804Z,-7.92
2017-01-27T06:03:39.978Z,-8.07
2017-01-27T06:04:09.874Z,-8.06
2017-01-27T06:04:40.026Z,-8.1
2017-01-27T06:05:10.046Z,-8.07
2017-01-27T06:05:40.068Z,-8.13
2017-01-27T06:06:10.107Z,-8.14
2017-01-27T06:06:40.130Z,-8.14
2017-01-27T06:07:10.152Z,-8.16
2017-01-27T06:07:40.183Z,-8.24
2017-01-27T06:08:10.065Z,-8.27
2017-01-27T06:08:40.242Z,-8.31
2017-01-27T06:09:10.261Z,-8.32
2017-01-27T06:09:40.295Z,-8.46
2017-01-27T06:10:10.321Z,-8.43
2017-01-27T06:10:40.359Z,-8.4
2017-01-27T06:11:10.237Z,-8.39
2017-01-27T06:11:40.400Z,-8.42
2017-01-27T06:12:10.432Z,-8.45
2017-01-27T06:12:40.338Z,-8.43
2017-01-27T06:13:10.478Z,-8.5
2017-01-27T06:13:40.808Z,-8.47
2017-01-27T06:14:10.388Z,-8.47
2017-01-27T06:14:40.558Z,-8.61
2017-01-27T06:15:10.588Z,-8.58
2017-01-27T06:15:40.615Z,-8.52
2017-01-27T06:16:10.638Z,-8.6
2017-01-27T06:16:40.668Z,-8.67
2017-01-27T06:17:10.700Z,-8.68
2017-01-27T06:17:40.721Z,-8.64
2017-01-27T06:18:10.601Z,-8.68
2017-01-27T06:18:41.083Z,-8.67
2017-01-27T06:19:10.802Z,-8.66
2017-01-27T06:19:40.830Z,-8.67
2017-01-27T06:20:10.859Z,-8.73
2017-01-27T06:20:40.880Z,-8.76
2017-01-27T06:21:10.608Z,-8.74
2017-01-27T06:21:40.936Z,-8.85
2017-01-27T06:22:10.959Z,-8.85
2017-01-27T06:22:40.986Z,-8.96
2017-01-27T06:23:11.026Z,-9
2017-01-27T06:23:41.044Z,-9.02
2017-01-27T06:24:11.094Z,-9.05
2017-01-27T06:24:41.097Z,-9.09
2017-01-27T06:25:10.979Z,-9.24
2017-01-27T06:25:41.152Z,-9.27
2017-01-27T06:26:11.044Z,-9.3
2017-01-27T06:26:41.196Z,-9.36
2017-01-27T06:27:11.232Z,-9.41
2017-01-27T06:27:41.278Z,-9.5
2017-01-27T06:28:11.288Z,-9.54